sensor_id;sensor_type;location;lat;lon;timestamp;temperature;humidity
8856;DHT22;4464;50.882;4.730;2023-04-19T00:00:56;9.70;99.90
8856;DHT22;4464;50.882;4.730;2023-04-19T00:03:22;9.70;99.90
8856;DHT22;4464;50.882;4.730;2023-04-19T00:05:50;9.60;99.90
8856;DHT22;4464;50.882;4.730;2023-04-19T00:08:18;9.60;99.90
8856;DHT22;4464;50.882;4.730;2023-04-19T00:10:46;9.50;99.90
8856;DHT22;4464;50.882;4.730;2023-04-19T00:13:11;9.50;99.90
8856;DHT22;4464;50.882;4.730;2023-04-19T00:15:37;9.40;99.90
8856;DHT22;4464;50.882;4.730;2023-04-19T00:18:05;9.40;99.90
8856;DHT22;4464;50.882;4.730;2023-04-19T00:20:31;9.40;99.90
8856;DHT22;4464;50.882;4.730;2023-04-19T00:22:59;9.40;99.90
8856;DHT22;4464;50.882;4.730;2023-04-19T00:25:25;9.40;99.90
8856;DHT22;4464;50.882;4.730;2023-04-19T00:27:51;9.40;99.90
8856;DHT22;4464;50.882;4.730;2023-04-19T00:30:17;9.30;99.90
8856;DHT22;4464;50.882;4.730;2023-04-19T00:32:42;9.30;99.90
8856;DHT22;4464;50.882;4.730;2023-04-19T00:35:11;9.20;99.90
8856;DHT22;4464;50.882;4.730;2023-04-19T00:37:37;9.20;99.90
8856;DHT22;4464;50.882;4.730;2023-04-19T00:40:03;9.20;99.90
8856;DHT22;4464;50.882;4.730;2023-04-19T00:42:31;9.10;99.90
8856;DHT22;4464;50.882;4.730;2023-04-19T00:44:56;9.10;99.90
8856;DHT22;4464;50.882;4.730;2023-04-19T00:47:24;9.10;99.90
8856;DHT22;4464;50.882;4.730;2023-04-19T00:49:50;9.10;99.90
8856;DHT22;4464;50.882;4.730;2023-04-19T00:52:16;9.10;99.90
8856;DHT22;4464;50.882;4.730;2023-04-19T00:54:42;9.10;99.90
8856;DHT22;4464;50.882;4.730;2023-04-19T00:57:09;9.10;99.90
8856;DHT22;4464;50.882;4.730;2023-04-19T00:59:35;9.00;99.90
8856;DHT22;4464;50.882;4.730;2023-04-19T01:02:03;9.00;99.90
8856;DHT22;4464;50.882;4.730;2023-04-19T01:04:32;9.00;99.90
8856;DHT22;4464;50.882;4.730;2023-04-19T01:06:57;9.10;99.90
8856;DHT22;4464;50.882;4.730;2023-04-19T01:09:23;9.10;99.90
8856;DHT22;4464;50.882;4.730;2023-04-19T01:11:49;9.20;99.90
8856;DHT22;4464;50.882;4.730;2023-04-19T01:14:15;9.30;99.90
8856;DHT22;4464;50.882;4.730;2023-04-19T01:16:41;9.40;99.90
8856;DHT22;4464;50.882;4.730;2023-04-19T01:19:10;9.50;99.90
8856;DHT22;4464;50.882;4.730;2023-04-19T01:21:36;9.60;99.90
8856;DHT22;4464;50.882;4.730;2023-04-19T01:24:05;9.70;99.90
8856;DHT22;4464;50.882;4.730;2023-04-19T01:26:31;9.80;99.90
8856;DHT22;4464;50.882;4.730;2023-04-19T01:28:58;9.90;99.90
8856;DHT22;4464;50.882;4.730;2023-04-19T01:31:27;10.00;99.90
8856;DHT22;4464;50.882;4.730;2023-04-19T01:33:52;10.00;99.90
8856;DHT22;4464;50.882;4.730;2023-04-19T01:36:18;10.10;99.90
8856;DHT22;4464;50.882;4.730;2023-04-19T01:38:44;10.10;99.90
8856;DHT22;4464;50.882;4.730;2023-04-19T01:41:12;10.20;99.90
8856;DHT22;4464;50.882;4.730;2023-04-19T01:43:38;10.20;99.90
8856;DHT22;4464;50.882;4.730;2023-04-19T01:46:05;10.20;99.90
8856;DHT22;4464;50.882;4.730;2023-04-19T01:48:31;10.20;99.90
8856;DHT22;4464;50.882;4.730;2023-04-19T01:50:59;10.30;99.90
8856;DHT22;4464;50.882;4.730;2023-04-19T01:53:27;10.30;99.90
8856;DHT22;4464;50.882;4.730;2023-04-19T01:55:56;10.40;99.90
8856;DHT22;4464;50.882;4.730;2023-04-19T01:58:24;10.40;99.90
8856;DHT22;4464;50.882;4.730;2023-04-19T02:00:52;10.40;99.90
8856;DHT22;4464;50.882;4.730;2023-04-19T02:03:20;10.40;99.90
8856;DHT22;4464;50.882;4.730;2023-04-19T02:05:46;10.40;99.90
8856;DHT22;4464;50.882;4.730;2023-04-19T02:08:12;10.40;99.90
8856;DHT22;4464;50.882;4.730;2023-04-19T02:10:37;10.40;99.90
8856;DHT22;4464;50.882;4.730;2023-04-19T02:13:03;10.40;99.90
8856;DHT22;4464;50.882;4.730;2023-04-19T02:15:29;10.40;99.90
8856;DHT22;4464;50.882;4.730;2023-04-19T02:17:59;10.40;99.90
8856;DHT22;4464;50.882;4.730;2023-04-19T02:20:25;10.50;99.90
8856;DHT22;4464;50.882;4.730;2023-04-19T02:22:50;10.60;99.90
8856;DHT22;4464;50.882;4.730;2023-04-19T02:25:18;10.60;99.90
8856;DHT22;4464;50.882;4.730;2023-04-19T02:27:44;10.60;99.90
8856;DHT22;4464;50.882;4.730;2023-04-19T02:30:10;10.60;99.90
8856;DHT22;4464;50.882;4.730;2023-04-19T02:32:38;10.60;99.90
8856;DHT22;4464;50.882;4.730;2023-04-19T02:35:04;10.60;99.90
8856;DHT22;4464;50.882;4.730;2023-04-19T02:37:33;10.70;99.90
8856;DHT22;4464;50.882;4.730;2023-04-19T02:39:58;10.70;99.90
8856;DHT22;4464;50.882;4.730;2023-04-19T02:42:24;10.60;99.90
8856;DHT22;4464;50.882;4.730;2023-04-19T02:44:50;10.60;99.90
8856;DHT22;4464;50.882;4.730;2023-04-19T02:47:15;10.70;99.90
8856;DHT22;4464;50.882;4.730;2023-04-19T02:49:41;10.70;99.90
8856;DHT22;4464;50.882;4.730;2023-04-19T02:52:09;10.70;99.90
8856;DHT22;4464;50.882;4.730;2023-04-19T02:54:35;10.70;99.90
8856;DHT22;4464;50.882;4.730;2023-04-19T02:57:01;10.70;99.90
8856;DHT22;4464;50.882;4.730;2023-04-19T02:59:30;10.70;99.90
8856;DHT22;4464;50.882;4.730;2023-04-19T03:01:56;10.70;99.90
8856;DHT22;4464;50.882;4.730;2023-04-19T03:04:22;10.60;99.90
8856;DHT22;4464;50.882;4.730;2023-04-19T03:06:51;10.70;99.90
8856;DHT22;4464;50.882;4.730;2023-04-19T03:09:17;10.70;99.90
8856;DHT22;4464;50.882;4.730;2023-04-19T03:11:43;10.70;99.90
8856;DHT22;4464;50.882;4.730;2023-04-19T03:14:09;10.70;99.90
8856;DHT22;4464;50.882;4.730;2023-04-19T03:16:34;10.70;99.90
8856;DHT22;4464;50.882;4.730;2023-04-19T03:19:03;10.70;99.90
8856;DHT22;4464;50.882;4.730;2023-04-19T03:21:31;10.70;99.90
8856;DHT22;4464;50.882;4.730;2023-04-19T03:23:58;10.60;99.90
8856;DHT22;4464;50.882;4.730;2023-04-19T03:26:24;10.60;99.90
8856;DHT22;4464;50.882;4.730;2023-04-19T03:28:52;10.60;99.90
8856;DHT22;4464;50.882;4.730;2023-04-19T03:31:18;10.50;99.90
8856;DHT22;4464;50.882;4.730;2023-04-19T03:33:44;10.40;99.90
8856;DHT22;4464;50.882;4.730;2023-04-19T03:36:09;10.30;99.90
8856;DHT22;4464;50.882;4.730;2023-04-19T03:38:38;10.20;99.90
8856;DHT22;4464;50.882;4.730;2023-04-19T03:41:03;10.20;99.90
8856;DHT22;4464;50.882;4.730;2023-04-19T03:43:29;10.10;99.90
8856;DHT22;4464;50.882;4.730;2023-04-19T03:45:55;10.10;99.90
8856;DHT22;4464;50.882;4.730;2023-04-19T03:48:20;10.00;99.90
8856;DHT22;4464;50.882;4.730;2023-04-19T03:50:48;9.90;99.90
8856;DHT22;4464;50.882;4.730;2023-04-19T03:53:14;9.80;99.90
8856;DHT22;4464;50.882;4.730;2023-04-19T03:55:41;9.80;99.90
8856;DHT22;4464;50.882;4.730;2023-04-19T03:58:10;9.70;99.90
8856;DHT22;4464;50.882;4.730;2023-04-19T04:00:38;9.60;99.90
8856;DHT22;4464;50.882;4.730;2023-04-19T04:03:03;9.60;99.90
8856;DHT22;4464;50.882;4.730;2023-04-19T04:05:29;9.60;99.90
8856;DHT22;4464;50.882;4.730;2023-04-19T04:07:57;9.50;99.90
8856;DHT22;4464;50.882;4.730;2023-04-19T04:10:25;9.40;99.90
8856;DHT22;4464;50.882;4.730;2023-04-19T04:12:51;9.40;99.90
8856;DHT22;4464;50.882;4.730;2023-04-19T04:15:19;9.40;99.90
8856;DHT22;4464;50.882;4.730;2023-04-19T04:17:44;9.40;99.90
8856;DHT22;4464;50.882;4.730;2023-04-19T04:20:10;9.40;99.90
8856;DHT22;4464;50.882;4.730;2023-04-19T04:22:44;9.30;99.90
8856;DHT22;4464;50.882;4.730;2023-04-19T04:25:13;9.30;99.90
8856;DHT22;4464;50.882;4.730;2023-04-19T04:27:41;9.30;99.90
8856;DHT22;4464;50.882;4.730;2023-04-19T04:30:10;9.30;99.90
8856;DHT22;4464;50.882;4.730;2023-04-19T04:32:39;9.30;99.90
8856;DHT22;4464;50.882;4.730;2023-04-19T04:35:06;9.40;99.90
8856;DHT22;4464;50.882;4.730;2023-04-19T04:37:33;9.30;99.90
8856;DHT22;4464;50.882;4.730;2023-04-19T04:40:02;9.30;99.90
8856;DHT22;4464;50.882;4.730;2023-04-19T04:42:33;9.30;99.90
8856;DHT22;4464;50.882;4.730;2023-04-19T04:45:02;9.30;99.90
8856;DHT22;4464;50.882;4.730;2023-04-19T04:47:32;9.30;99.90
8856;DHT22;4464;50.882;4.730;2023-04-19T04:49:59;9.30;99.90
8856;DHT22;4464;50.882;4.730;2023-04-19T04:52:25;9.30;99.90
8856;DHT22;4464;50.882;4.730;2023-04-19T04:54:51;9.30;99.90
8856;DHT22;4464;50.882;4.730;2023-04-19T04:57:19;9.30;99.90
8856;DHT22;4464;50.882;4.730;2023-04-19T04:59:46;9.30;99.90
8856;DHT22;4464;50.882;4.730;2023-04-19T05:02:13;9.30;99.90
8856;DHT22;4464;50.882;4.730;2023-04-19T05:04:39;9.40;99.90
8856;DHT22;4464;50.882;4.730;2023-04-19T05:07:07;9.40;99.90
8856;DHT22;4464;50.882;4.730;2023-04-19T05:09:33;9.40;99.90
8856;DHT22;4464;50.882;4.730;2023-04-19T05:12:01;9.40;99.90
8856;DHT22;4464;50.882;4.730;2023-04-19T05:14:26;9.40;99.90
8856;DHT22;4464;50.882;4.730;2023-04-19T05:16:54;9.40;99.90
8856;DHT22;4464;50.882;4.730;2023-04-19T05:19:20;9.40;99.90
8856;DHT22;4464;50.882;4.730;2023-04-19T05:21:46;9.40;99.90
8856;DHT22;4464;50.882;4.730;2023-04-19T05:24:12;9.40;99.90
8856;DHT22;4464;50.882;4.730;2023-04-19T05:26:42;9.50;99.90
8856;DHT22;4464;50.882;4.730;2023-04-19T05:29:08;9.50;99.90
8856;DHT22;4464;50.882;4.730;2023-04-19T05:31:33;9.50;99.90
8856;DHT22;4464;50.882;4.730;2023-04-19T05:33:59;9.60;99.90
8856;DHT22;4464;50.882;4.730;2023-04-19T05:36:25;9.70;99.90
8856;DHT22;4464;50.882;4.730;2023-04-19T05:38:51;9.80;99.90
8856;DHT22;4464;50.882;4.730;2023-04-19T05:41:19;10.00;99.90
8856;DHT22;4464;50.882;4.730;2023-04-19T05:43:45;10.10;99.90
8856;DHT22;4464;50.882;4.730;2023-04-19T05:46:10;10.20;99.90
8856;DHT22;4464;50.882;4.730;2023-04-19T05:48:38;10.30;99.90
8856;DHT22;4464;50.882;4.730;2023-04-19T05:51:06;10.40;99.90
8856;DHT22;4464;50.882;4.730;2023-04-19T05:53:32;10.50;99.90
8856;DHT22;4464;50.882;4.730;2023-04-19T05:55:57;10.60;99.90
8856;DHT22;4464;50.882;4.730;2023-04-19T05:58:23;10.70;99.90
8856;DHT22;4464;50.882;4.730;2023-04-19T06:00:50;10.80;99.90
8856;DHT22;4464;50.882;4.730;2023-04-19T06:03:16;10.90;99.90
8856;DHT22;4464;50.882;4.730;2023-04-19T06:05:44;10.90;99.90
8856;DHT22;4464;50.882;4.730;2023-04-19T06:08:10;10.90;99.90
8856;DHT22;4464;50.882;4.730;2023-04-19T06:10:36;11.00;99.90
8856;DHT22;4464;50.882;4.730;2023-04-19T06:13:04;11.00;99.90
8856;DHT22;4464;50.882;4.730;2023-04-19T06:15:34;11.60;99.90
8856;DHT22;4464;50.882;4.730;2023-04-19T06:18:04;12.00;99.90
8856;DHT22;4464;50.882;4.730;2023-04-19T06:20:38;12.30;99.90
8856;DHT22;4464;50.882;4.730;2023-04-19T06:23:05;12.50;99.90
8856;DHT22;4464;50.882;4.730;2023-04-19T06:25:33;12.50;99.90
8856;DHT22;4464;50.882;4.730;2023-04-19T06:27:59;12.70;99.90
8856;DHT22;4464;50.882;4.730;2023-04-19T06:30:24;12.80;99.90
8856;DHT22;4464;50.882;4.730;2023-04-19T06:32:53;12.90;99.90
8856;DHT22;4464;50.882;4.730;2023-04-19T06:35:18;12.90;99.90
8856;DHT22;4464;50.882;4.730;2023-04-19T06:37:44;13.00;99.90
8856;DHT22;4464;50.882;4.730;2023-04-19T06:40:10;12.80;99.90
8856;DHT22;4464;50.882;4.730;2023-04-19T06:42:36;12.60;99.90
8856;DHT22;4464;50.882;4.730;2023-04-19T06:45:02;12.40;99.90
8856;DHT22;4464;50.882;4.730;2023-04-19T06:47:29;12.30;99.90
8856;DHT22;4464;50.882;4.730;2023-04-19T06:49:55;12.10;99.90
8856;DHT22;4464;50.882;4.730;2023-04-19T06:52:23;12.10;99.90
8856;DHT22;4464;50.882;4.730;2023-04-19T06:54:50;12.10;99.90
8856;DHT22;4464;50.882;4.730;2023-04-19T06:57:18;12.10;99.90
8856;DHT22;4464;50.882;4.730;2023-04-19T06:59:44;12.10;99.90
8856;DHT22;4464;50.882;4.730;2023-04-19T07:02:12;12.20;99.90
8856;DHT22;4464;50.882;4.730;2023-04-19T07:04:38;12.30;99.90
8856;DHT22;4464;50.882;4.730;2023-04-19T07:07:04;12.30;99.90
8856;DHT22;4464;50.882;4.730;2023-04-19T07:09:29;12.30;99.90
8856;DHT22;4464;50.882;4.730;2023-04-19T07:11:57;12.40;99.90
8856;DHT22;4464;50.882;4.730;2023-04-19T07:14:23;12.50;99.90
8856;DHT22;4464;50.882;4.730;2023-04-19T07:16:49;12.60;99.90
8856;DHT22;4464;50.882;4.730;2023-04-19T07:19:14;12.50;99.90
8856;DHT22;4464;50.882;4.730;2023-04-19T07:21:43;12.60;99.90
8856;DHT22;4464;50.882;4.730;2023-04-19T07:24:09;12.70;99.90
8856;DHT22;4464;50.882;4.730;2023-04-19T07:26:35;12.80;99.90
8856;DHT22;4464;50.882;4.730;2023-04-19T07:29:00;12.90;99.90
8856;DHT22;4464;50.882;4.730;2023-04-19T07:31:27;13.20;99.90
8856;DHT22;4464;50.882;4.730;2023-04-19T07:33:55;13.50;99.90
8856;DHT22;4464;50.882;4.730;2023-04-19T07:36:21;13.60;99.90
8856;DHT22;4464;50.882;4.730;2023-04-19T07:38:49;13.70;99.90
8856;DHT22;4464;50.882;4.730;2023-04-19T07:41:15;13.90;99.90
8856;DHT22;4464;50.882;4.730;2023-04-19T07:43:43;13.80;99.90
8856;DHT22;4464;50.882;4.730;2023-04-19T07:46:12;13.80;99.90
8856;DHT22;4464;50.882;4.730;2023-04-19T07:48:38;13.70;99.90
8856;DHT22;4464;50.882;4.730;2023-04-19T07:51:22;13.60;99.90
8856;DHT22;4464;50.882;4.730;2023-04-19T07:53:49;13.60;99.90
8856;DHT22;4464;50.882;4.730;2023-04-19T07:56:17;13.70;99.90
8856;DHT22;4464;50.882;4.730;2023-04-19T07:58:44;13.80;99.90
8856;DHT22;4464;50.882;4.730;2023-04-19T08:01:12;13.90;99.90
8856;DHT22;4464;50.882;4.730;2023-04-19T08:03:40;14.00;99.90
8856;DHT22;4464;50.882;4.730;2023-04-19T08:06:06;14.00;99.90
8856;DHT22;4464;50.882;4.730;2023-04-19T08:08:35;14.00;99.90
8856;DHT22;4464;50.882;4.730;2023-04-19T08:11:01;14.00;99.90
8856;DHT22;4464;50.882;4.730;2023-04-19T08:13:28;14.00;99.90
8856;DHT22;4464;50.882;4.730;2023-04-19T08:15:54;14.10;99.90
8856;DHT22;4464;50.882;4.730;2023-04-19T08:18:19;14.30;99.90
8856;DHT22;4464;50.882;4.730;2023-04-19T08:20:46;14.80;99.90
8856;DHT22;4464;50.882;4.730;2023-04-19T08:23:11;15.30;99.90
8856;DHT22;4464;50.882;4.730;2023-04-19T08:25:37;15.80;99.90
8856;DHT22;4464;50.882;4.730;2023-04-19T08:28:05;16.20;99.90
8856;DHT22;4464;50.882;4.730;2023-04-19T08:30:31;16.20;99.90
8856;DHT22;4464;50.882;4.730;2023-04-19T08:33:00;16.30;99.90
8856;DHT22;4464;50.882;4.730;2023-04-19T08:35:25;16.00;99.90
8856;DHT22;4464;50.882;4.730;2023-04-19T08:37:53;15.90;99.90
8856;DHT22;4464;50.882;4.730;2023-04-19T08:40:19;16.10;99.90
8856;DHT22;4464;50.882;4.730;2023-04-19T08:42:45;16.60;99.90
8856;DHT22;4464;50.882;4.730;2023-04-19T08:45:11;17.20;99.90
8856;DHT22;4464;50.882;4.730;2023-04-19T08:47:39;17.90;99.90
8856;DHT22;4464;50.882;4.730;2023-04-19T08:50:07;18.60;99.90
8856;DHT22;4464;50.882;4.730;2023-04-19T08:52:38;19.10;99.90
8856;DHT22;4464;50.882;4.730;2023-04-19T08:55:06;19.80;99.90
8856;DHT22;4464;50.882;4.730;2023-04-19T08:57:33;19.30;99.90
8856;DHT22;4464;50.882;4.730;2023-04-19T09:00:00;19.60;99.90
8856;DHT22;4464;50.882;4.730;2023-04-19T09:02:26;20.10;99.70
8856;DHT22;4464;50.882;4.730;2023-04-19T09:04:51;19.90;99.70
8856;DHT22;4464;50.882;4.730;2023-04-19T09:07:25;19.60;99.90
8856;DHT22;4464;50.882;4.730;2023-04-19T09:10:04;19.70;99.90
8856;DHT22;4464;50.882;4.730;2023-04-19T09:12:33;20.30;99.60
8856;DHT22;4464;50.882;4.730;2023-04-19T09:15:00;20.80;99.00
8856;DHT22;4464;50.882;4.730;2023-04-19T09:17:28;20.90;98.50
8856;DHT22;4464;50.882;4.730;2023-04-19T09:19:56;21.10;97.90
8856;DHT22;4464;50.882;4.730;2023-04-19T09:22:22;21.40;98.00
8856;DHT22;4464;50.882;4.730;2023-04-19T09:24:49;21.20;97.10
8856;DHT22;4464;50.882;4.730;2023-04-19T09:27:27;21.20;97.30
8856;DHT22;4464;50.882;4.730;2023-04-19T09:29:58;21.00;96.70
8856;DHT22;4464;50.882;4.730;2023-04-19T09:32:24;20.90;96.80
8856;DHT22;4464;50.882;4.730;2023-04-19T09:34:56;21.20;96.20
8856;DHT22;4464;50.882;4.730;2023-04-19T09:37:22;21.70;95.90
8856;DHT22;4464;50.882;4.730;2023-04-19T09:39:48;21.80;94.60
8856;DHT22;4464;50.882;4.730;2023-04-19T09:42:14;21.50;94.70
8856;DHT22;4464;50.882;4.730;2023-04-19T09:44:40;21.00;95.50
8856;DHT22;4464;50.882;4.730;2023-04-19T09:47:25;21.70;94.80
8856;DHT22;4464;50.882;4.730;2023-04-19T09:50:27;22.50;93.40
8856;DHT22;4464;50.882;4.730;2023-04-19T09:52:52;22.20;93.10
8856;DHT22;4464;50.882;4.730;2023-04-19T09:55:18;22.50;93.10
8856;DHT22;4464;50.882;4.730;2023-04-19T09:57:47;22.70;93.10
8856;DHT22;4464;50.882;4.730;2023-04-19T10:00:13;22.90;92.60
8856;DHT22;4464;50.882;4.730;2023-04-19T10:02:40;23.20;92.20
8856;DHT22;4464;50.882;4.730;2023-04-19T10:05:09;23.40;91.60
8856;DHT22;4464;50.882;4.730;2023-04-19T10:07:36;22.70;91.30
8856;DHT22;4464;50.882;4.730;2023-04-19T10:10:05;21.10;92.30
8856;DHT22;4464;50.882;4.730;2023-04-19T10:12:34;20.70;93.00
8856;DHT22;4464;50.882;4.730;2023-04-19T10:15:05;21.10;93.40
8856;DHT22;4464;50.882;4.730;2023-04-19T10:17:34;22.30;91.90
8856;DHT22;4464;50.882;4.730;2023-04-19T10:20:06;22.30;91.70
8856;DHT22;4464;50.882;4.730;2023-04-19T10:22:34;22.30;92.00
8856;DHT22;4464;50.882;4.730;2023-04-19T10:25:13;22.50;91.10
8856;DHT22;4464;50.882;4.730;2023-04-19T10:27:43;21.20;91.30
8856;DHT22;4464;50.882;4.730;2023-04-19T10:30:31;21.70;92.60
8856;DHT22;4464;50.882;4.730;2023-04-19T10:32:58;23.60;91.30
8856;DHT22;4464;50.882;4.730;2023-04-19T10:35:34;24.00;89.10
8856;DHT22;4464;50.882;4.730;2023-04-19T10:40:59;22.10;90.10
8856;DHT22;4464;50.882;4.730;2023-04-19T10:43:35;21.10;91.20
8856;DHT22;4464;50.882;4.730;2023-04-19T10:46:09;21.00;92.10
8856;DHT22;4464;50.882;4.730;2023-04-19T10:51:46;20.80;91.90
8856;DHT22;4464;50.882;4.730;2023-04-19T10:57:03;20.60;92.40
8856;DHT22;4464;50.882;4.730;2023-04-19T10:59:34;20.50;92.10
8856;DHT22;4464;50.882;4.730;2023-04-19T11:02:04;20.10;92.50
8856;DHT22;4464;50.882;4.730;2023-04-19T11:07:16;20.00;91.60
8856;DHT22;4464;50.882;4.730;2023-04-19T11:09:48;19.90;91.50
8856;DHT22;4464;50.882;4.730;2023-04-19T11:12:18;20.00;91.60
8856;DHT22;4464;50.882;4.730;2023-04-19T11:14:51;20.80;90.30
8856;DHT22;4464;50.882;4.730;2023-04-19T11:20:02;19.50;90.60
8856;DHT22;4464;50.882;4.730;2023-04-19T11:25:06;19.40;90.50
8856;DHT22;4464;50.882;4.730;2023-04-19T11:27:33;19.70;91.00
8856;DHT22;4464;50.882;4.730;2023-04-19T11:30:22;20.20;90.60
8856;DHT22;4464;50.882;4.730;2023-04-19T11:32:54;20.80;88.30
8856;DHT22;4464;50.882;4.730;2023-04-19T11:35:25;20.20;89.80
8856;DHT22;4464;50.882;4.730;2023-04-19T11:37:52;20.00;90.00
8856;DHT22;4464;50.882;4.730;2023-04-19T11:40:19;21.30;88.40
8856;DHT22;4464;50.882;4.730;2023-04-19T11:42:45;23.10;86.60
8856;DHT22;4464;50.882;4.730;2023-04-19T11:45:12;24.10;84.70
8856;DHT22;4464;50.882;4.730;2023-04-19T11:47:49;24.10;81.60
8856;DHT22;4464;50.882;4.730;2023-04-19T11:50:40;23.70;81.10
8856;DHT22;4464;50.882;4.730;2023-04-19T11:53:10;23.10;79.70
8856;DHT22;4464;50.882;4.730;2023-04-19T11:55:42;22.60;79.80
8856;DHT22;4464;50.882;4.730;2023-04-19T11:58:08;23.20;80.80
8856;DHT22;4464;50.882;4.730;2023-04-19T12:00:38;24.00;78.80
8856;DHT22;4464;50.882;4.730;2023-04-19T12:03:06;25.40;78.90
8856;DHT22;4464;50.882;4.730;2023-04-19T12:05:33;25.10;73.80
8856;DHT22;4464;50.882;4.730;2023-04-19T12:08:03;23.90;73.20
8856;DHT22;4464;50.882;4.730;2023-04-19T12:10:30;23.60;72.10
8856;DHT22;4464;50.882;4.730;2023-04-19T12:12:56;23.90;72.90
8856;DHT22;4464;50.882;4.730;2023-04-19T12:15:22;24.80;72.20
8856;DHT22;4464;50.882;4.730;2023-04-19T12:17:58;24.40;70.80
8856;DHT22;4464;50.882;4.730;2023-04-19T12:20:35;25.10;70.00
8856;DHT22;4464;50.882;4.730;2023-04-19T12:23:01;25.00;67.40
8856;DHT22;4464;50.882;4.730;2023-04-19T12:25:31;25.70;65.90
8856;DHT22;4464;50.882;4.730;2023-04-19T12:28:07;25.90;67.10
8856;DHT22;4464;50.882;4.730;2023-04-19T12:30:35;25.50;61.90
8856;DHT22;4464;50.882;4.730;2023-04-19T12:33:01;25.00;63.20
8856;DHT22;4464;50.882;4.730;2023-04-19T12:35:27;25.30;63.50
8856;DHT22;4464;50.882;4.730;2023-04-19T12:37:57;25.70;63.20
8856;DHT22;4464;50.882;4.730;2023-04-19T12:40:26;25.90;60.60
8856;DHT22;4464;50.882;4.730;2023-04-19T12:42:52;26.50;59.00
8856;DHT22;4464;50.882;4.730;2023-04-19T12:45:18;26.00;58.40
8856;DHT22;4464;50.882;4.730;2023-04-19T12:47:46;25.60;58.20
8856;DHT22;4464;50.882;4.730;2023-04-19T12:50:13;24.80;58.50
8856;DHT22;4464;50.882;4.730;2023-04-19T12:52:40;24.70;58.50
8856;DHT22;4464;50.882;4.730;2023-04-19T12:55:06;25.10;57.60
8856;DHT22;4464;50.882;4.730;2023-04-19T12:57:32;25.00;54.60
8856;DHT22;4464;50.882;4.730;2023-04-19T12:59:58;24.60;53.50
8856;DHT22;4464;50.882;4.730;2023-04-19T13:02:23;24.60;54.70
8856;DHT22;4464;50.882;4.730;2023-04-19T13:04:49;25.00;54.60
8856;DHT22;4464;50.882;4.730;2023-04-19T13:07:20;25.60;54.30
8856;DHT22;4464;50.882;4.730;2023-04-19T13:09:45;26.40;53.70
8856;DHT22;4464;50.882;4.730;2023-04-19T13:12:11;26.40;53.00
8856;DHT22;4464;50.882;4.730;2023-04-19T13:14:37;25.60;53.90
8856;DHT22;4464;50.882;4.730;2023-04-19T13:17:05;25.30;54.10
8856;DHT22;4464;50.882;4.730;2023-04-19T13:19:31;25.50;53.60
8856;DHT22;4464;50.882;4.730;2023-04-19T13:21:56;25.80;53.30
8856;DHT22;4464;50.882;4.730;2023-04-19T13:24:22;26.30;51.50
8856;DHT22;4464;50.882;4.730;2023-04-19T13:26:48;26.00;51.10
8856;DHT22;4464;50.882;4.730;2023-04-19T13:29:13;24.80;51.60
8856;DHT22;4464;50.882;4.730;2023-04-19T13:31:42;25.70;51.30
8856;DHT22;4464;50.882;4.730;2023-04-19T13:34:10;26.10;50.50
8856;DHT22;4464;50.882;4.730;2023-04-19T13:36:36;26.30;49.10
8856;DHT22;4464;50.882;4.730;2023-04-19T13:39:02;26.80;48.50
8856;DHT22;4464;50.882;4.730;2023-04-19T13:41:28;27.20;47.00
8856;DHT22;4464;50.882;4.730;2023-04-19T13:43:54;27.50;46.30
8856;DHT22;4464;50.882;4.730;2023-04-19T13:46:22;27.30;46.70
8856;DHT22;4464;50.882;4.730;2023-04-19T13:48:47;27.20;46.80
8856;DHT22;4464;50.882;4.730;2023-04-19T13:51:15;25.80;46.10
8856;DHT22;4464;50.882;4.730;2023-04-19T13:53:43;25.80;47.70
8856;DHT22;4464;50.882;4.730;2023-04-19T13:56:09;25.60;48.40
8856;DHT22;4464;50.882;4.730;2023-04-19T13:58:37;25.30;47.30
8856;DHT22;4464;50.882;4.730;2023-04-19T14:01:03;25.20;47.80
8856;DHT22;4464;50.882;4.730;2023-04-19T14:03:33;25.50;47.30
8856;DHT22;4464;50.882;4.730;2023-04-19T14:05:59;26.30;47.50
8856;DHT22;4464;50.882;4.730;2023-04-19T14:08:24;26.20;45.20
8856;DHT22;4464;50.882;4.730;2023-04-19T14:10:50;24.70;44.50
8856;DHT22;4464;50.882;4.730;2023-04-19T14:13:16;24.80;46.00
8856;DHT22;4464;50.882;4.730;2023-04-19T14:15:42;24.70;44.80
8856;DHT22;4464;50.882;4.730;2023-04-19T14:18:07;25.20;45.20
8856;DHT22;4464;50.882;4.730;2023-04-19T14:20:33;24.70;44.70
8856;DHT22;4464;50.882;4.730;2023-04-19T14:22:59;23.80;45.20
8856;DHT22;4464;50.882;4.730;2023-04-19T14:25:28;24.20;46.10
8856;DHT22;4464;50.882;4.730;2023-04-19T14:27:53;24.90;46.00
8856;DHT22;4464;50.882;4.730;2023-04-19T14:30:19;25.50;45.80
8856;DHT22;4464;50.882;4.730;2023-04-19T14:32:47;25.50;43.60
8856;DHT22;4464;50.882;4.730;2023-04-19T14:35:13;25.20;43.70
8856;DHT22;4464;50.882;4.730;2023-04-19T14:37:38;25.00;44.10
8856;DHT22;4464;50.882;4.730;2023-04-19T14:40:05;25.10;43.90
8856;DHT22;4464;50.882;4.730;2023-04-19T14:42:36;24.80;44.80
8856;DHT22;4464;50.882;4.730;2023-04-19T14:45:02;24.80;44.50
8856;DHT22;4464;50.882;4.730;2023-04-19T14:47:31;25.30;44.30
8856;DHT22;4464;50.882;4.730;2023-04-19T14:49:57;25.20;43.60
8856;DHT22;4464;50.882;4.730;2023-04-19T14:52:24;24.80;44.80
8856;DHT22;4464;50.882;4.730;2023-04-19T14:54:50;24.90;43.60
8856;DHT22;4464;50.882;4.730;2023-04-19T14:57:18;24.70;42.90
8856;DHT22;4464;50.882;4.730;2023-04-19T14:59:44;24.10;42.80
8856;DHT22;4464;50.882;4.730;2023-04-19T15:02:11;23.80;43.30
8856;DHT22;4464;50.882;4.730;2023-04-19T15:04:40;24.10;42.50
8856;DHT22;4464;50.882;4.730;2023-04-19T15:07:08;23.60;41.70
8856;DHT22;4464;50.882;4.730;2023-04-19T15:09:34;23.50;41.20
8856;DHT22;4464;50.882;4.730;2023-04-19T15:11:59;24.40;42.10
8856;DHT22;4464;50.882;4.730;2023-04-19T15:14:30;24.90;41.00
8856;DHT22;4464;50.882;4.730;2023-04-19T15:16:56;24.90;41.60
8856;DHT22;4464;50.882;4.730;2023-04-19T15:19:22;24.80;42.40
8856;DHT22;4464;50.882;4.730;2023-04-19T15:21:49;25.30;42.50
8856;DHT22;4464;50.882;4.730;2023-04-19T15:24:15;26.00;41.10
8856;DHT22;4464;50.882;4.730;2023-04-19T15:26:41;25.70;42.00
8856;DHT22;4464;50.882;4.730;2023-04-19T15:29:06;25.30;43.70
8856;DHT22;4464;50.882;4.730;2023-04-19T15:31:32;24.90;43.10
8856;DHT22;4464;50.882;4.730;2023-04-19T15:34:01;24.60;43.20
8856;DHT22;4464;50.882;4.730;2023-04-19T15:36:29;23.90;43.20
8856;DHT22;4464;50.882;4.730;2023-04-19T15:38:57;23.50;43.10
8856;DHT22;4464;50.882;4.730;2023-04-19T15:41:23;23.30;43.70
8856;DHT22;4464;50.882;4.730;2023-04-19T15:43:49;23.20;43.60
8856;DHT22;4464;50.882;4.730;2023-04-19T15:46:17;23.20;43.00
8856;DHT22;4464;50.882;4.730;2023-04-19T15:48:43;22.70;43.50
8856;DHT22;4464;50.882;4.730;2023-04-19T15:51:10;22.80;43.60
8856;DHT22;4464;50.882;4.730;2023-04-19T15:53:36;22.20;44.20
8856;DHT22;4464;50.882;4.730;2023-04-19T15:56:02;21.80;44.00
8856;DHT22;4464;50.882;4.730;2023-04-19T15:58:29;22.50;43.60
8856;DHT22;4464;50.882;4.730;2023-04-19T16:00:57;22.30;43.90
8856;DHT22;4464;50.882;4.730;2023-04-19T16:03:26;21.80;43.70
8856;DHT22;4464;50.882;4.730;2023-04-19T16:05:51;22.40;43.80
8856;DHT22;4464;50.882;4.730;2023-04-19T16:08:18;22.20;43.20
8856;DHT22;4464;50.882;4.730;2023-04-19T16:10:47;22.10;44.30
8856;DHT22;4464;50.882;4.730;2023-04-19T16:13:15;21.80;44.40
8856;DHT22;4464;50.882;4.730;2023-04-19T16:15:43;21.90;44.50
8856;DHT22;4464;50.882;4.730;2023-04-19T16:18:10;21.80;44.60
8856;DHT22;4464;50.882;4.730;2023-04-19T16:20:38;22.00;44.90
8856;DHT22;4464;50.882;4.730;2023-04-19T16:23:04;22.30;45.50